Time;durP1;ratioP1;P1;durP2;ratioP2;P2;SDS_P1;SDS_P2;PMS_P1;PMS_P2;Temp;Humidity;BMP_temperature;BMP_pressure;BME280_temperature;BME280_humidity;BME280_pressure;Samples;Min_cycle;Max_cycle;Signal;HPM_P1;HPM_P2
2023/01/29 00:01:27;;;;;;;25.95;11.57;;;;;;;;;;5082528;28;20059;-81
2023/01/29 00:03:53;;;;;;;22.98;10.95;;;;;;;;;;5081479;28;20388;-82
2023/01/29 00:06:18;;;;;;;22.90;10.45;;;;;;;;;;5100150;28;20051;-82
2023/01/29 00:08:44;;;;;;;19.67;10.20;;;;;;;;;;5099297;28;20035;-81
2023/01/29 00:11:10;;;;;;;21.58;10.85;;;;;;;;;;5099542;28;20061;-80
2023/01/29 00:13:35;;;;;;;23.52;10.68;;;;;;;;;;5065401;28;20048;-80
2023/01/29 00:16:02;;;;;;;21.10;10.00;;;;;;;;;;5093706;28;20469;-80
2023/01/29 00:18:28;;;;;;;19.83;9.65;;;;;;;;;;5085258;28;20047;-80
2023/01/29 00:20:54;;;;;;;18.92;9.77;;;;;;;;;;5078921;28;20127;-79
2023/01/29 00:23:21;;;;;;;23.08;10.15;;;;;;;;;;5105447;28;20065;-80
2023/01/29 00:25:46;;;;;;;19.55;9.30;;;;;;;;;;5104935;28;20111;-80
2023/01/29 00:28:13;;;;;;;18.48;8.75;;;;;;;;;;5105387;28;20024;-79
2023/01/29 00:30:38;;;;;;;18.40;8.93;;;;;;;;;;5087281;28;20032;-80
2023/01/29 00:33:04;;;;;;;17.38;8.52;;;;;;;;;;5066758;28;20032;-78
2023/01/29 00:35:30;;;;;;;20.40;8.88;;;;;;;;;;5097091;28;20024;-81
2023/01/29 00:37:56;;;;;;;18.77;9.60;;;;;;;;;;5059383;28;20040;-80
2023/01/29 00:40:22;;;;;;;24.20;10.35;;;;;;;;;;5076218;28;20036;-81
2023/01/29 00:45:35;;;;;;;21.50;9.35;;;;;;;;;;5093641;28;20391;-79
2023/01/29 00:48:04;;;;;;;21.10;10.00;;;;;;;;;;5058636;28;20040;-80
2023/01/29 00:50:30;;;;;;;20.77;9.27;;;;;;;;;;5093492;28;20040;-80
2023/01/29 00:52:56;;;;;;;20.08;9.55;;;;;;;;;;5075450;28;20511;-81
2023/01/29 00:55:21;;;;;;;17.67;8.65;;;;;;;;;;5093258;28;20040;-80
2023/01/29 00:57:47;;;;;;;25.25;11.18;;;;;;;;;;5093484;28;20055;-80
2023/01/29 01:00:15;;;;;;;22.77;10.65;;;;;;;;;;5075543;28;20557;-82
2023/01/29 01:05:25;;;;;;;19.92;9.45;;;;;;;;;;5097263;28;20119;-81
2023/01/29 01:07:53;;;;;;;19.60;9.57;;;;;;;;;;5064054;28;20032;-80
2023/01/29 01:10:32;;;;;;;20.65;9.93;;;;;;;;;;5080175;28;20036;-81
2023/01/29 01:13:05;;;;;;;21.58;10.45;;;;;;;;;;5079333;28;20122;-81
2023/01/29 01:15:35;;;;;;;20.40;10.07;;;;;;;;;;5096558;28;20373;-81
2023/01/29 01:18:02;;;;;;;20.95;10.27;;;;;;;;;;5078477;28;20040;-81
2023/01/29 01:20:30;;;;;;;21.90;10.27;;;;;;;;;;5062067;28;20044;-80
2023/01/29 01:22:56;;;;;;;21.90;9.60;;;;;;;;;;5083687;28;20050;-80
2023/01/29 01:25:23;;;;;;;17.77;8.80;;;;;;;;;;5101366;28;20035;-81
2023/01/29 01:27:53;;;;;;;22.00;9.60;;;;;;;;;;5101919;28;20036;-80
2023/01/29 01:30:19;;;;;;;21.08;9.93;;;;;;;;;;5083331;28;20032;-80
2023/01/29 01:32:44;;;;;;;18.65;8.75;;;;;;;;;;5082944;28;20031;-80
2023/01/29 01:35:11;;;;;;;21.02;9.45;;;;;;;;;;5082200;28;20064;-81
2023/01/29 01:37:37;;;;;;;21.45;9.68;;;;;;;;;;5099324;28;20107;-79
2023/01/29 01:40:16;;;;;;;19.98;9.55;;;;;;;;;;5083054;28;20082;-78
2023/01/29 01:42:43;;;;;;;20.30;9.75;;;;;;;;;;5078526;28;20032;-79
2023/01/29 01:45:25;;;;;;;20.45;9.02;;;;;;;;;;5096889;28;20044;-80
2023/01/29 01:48:02;;;;;;;18.38;9.15;;;;;;;;;;5096351;28;20047;-80
2023/01/29 01:50:42;;;;;;;21.35;9.43;;;;;;;;;;5061442;28;20081;-81
2023/01/29 01:53:12;;;;;;;21.42;9.52;;;;;;;;;;5100535;28;20032;-81
2023/01/29 01:55:49;;;;;;;18.05;9.30;;;;;;;;;;5082218;28;20069;-81
2023/01/29 01:58:38;;;;;;;22.60;10.18;;;;;;;;;;5082449;28;20028;-81
2023/01/29 02:01:06;;;;;;;19.77;10.05;;;;;;;;;;5082999;28;20496;-80
2023/01/29 02:11:56;;;;;;;21.10;10.23;;;;;;;;;;5100283;28;20043;-81
2023/01/29 02:14:22;;;;;;;22.30;9.93;;;;;;;;;;5081295;28;20028;-82
2023/01/29 02:16:47;;;;;;;21.05;10.05;;;;;;;;;;5080726;28;20492;-79
2023/01/29 02:19:35;;;;;;;20.63;9.63;;;;;;;;;;5077405;28;20111;-80
2023/01/29 02:22:24;;;;;;;16.60;8.80;;;;;;;;;;5077656;28;20038;-82
2023/01/29 02:25:17;;;;;;;19.00;8.45;;;;;;;;;;5095704;28;20161;-81
2023/01/29 02:28:24;;;;;;;16.20;8.00;;;;;;;;;;5077544;28;20501;-81
2023/01/29 02:31:08;;;;;;;15.90;7.00;;;;;;;;;;5077248;28;20393;-80
2023/01/29 02:33:50;;;;;;;14.38;7.22;;;;;;;;;;5077379;28;20032;-80
2023/01/29 02:36:54;;;;;;;15.85;7.38;;;;;;;;;;5076391;28;20404;-80
2023/01/29 02:39:27;;;;;;;13.77;6.72;;;;;;;;;;5060925;28;20036;-81
2023/01/29 02:42:06;;;;;;;15.77;7.20;;;;;;;;;;5061347;28;20031;-80
2023/01/29 02:44:35;;;;;;;13.07;6.30;;;;;;;;;;5063665;28;20128;-80
2023/01/29 02:47:33;;;;;;;14.77;7.00;;;;;;;;;;5083109;28;20408;-80
2023/01/29 02:50:03;;;;;;;15.05;7.15;;;;;;;;;;5051758;28;20052;-80
2023/01/29 02:52:38;;;;;;;13.90;6.60;;;;;;;;;;5084155;28;20040;-80
2023/01/29 02:55:17;;;;;;;13.90;7.10;;;;;;;;;;5102500;28;20054;-81
2023/01/29 02:57:46;;;;;;;14.38;6.97;;;;;;;;;;5077811;28;20081;-80
2023/01/29 03:00:19;;;;;;;17.23;8.15;;;;;;;;;;5080221;28;20506;-81
2023/01/29 03:03:11;;;;;;;15.43;6.88;;;;;;;;;;5085290;28;20024;-80
2023/01/29 03:05:58;;;;;;;14.27;6.95;;;;;;;;;;5105586;28;20044;-80
2023/01/29 03:08:41;;;;;;;17.15;7.45;;;;;;;;;;5087357;28;20057;-80
2023/01/29 03:11:12;;;;;;;14.80;7.63;;;;;;;;;;5091765;28;20039;-80
2023/01/29 03:13:41;;;;;;;15.07;7.63;;;;;;;;;;5091995;28;20047;-80
2023/01/29 03:16:21;;;;;;;15.73;7.63;;;;;;;;;;5090892;28;20054;-80
2023/01/29 03:18:58;;;;;;;16.77;7.95;;;;;;;;;;5123367;28;20526;-80
2023/01/29 03:21:50;;;;;;;16.58;7.78;;;;;;;;;;5105573;28;20032;-80
2023/01/29 03:33:11;;;;;;;13.68;6.78;;;;;;;;;;5087802;28;20032;-79
2023/01/29 03:35:47;;;;;;;15.80;7.10;;;;;;;;;;5086791;28;20012;-80
2023/01/29 03:38:14;;;;;;;14.82;7.18;;;;;;;;;;5086688;28;20023;-80
2023/01/29 03:41:01;;;;;;;14.95;7.10;;;;;;;;;;5086273;28;20057;-80
2023/01/29 03:43:56;;;;;;;15.70;7.22;;;;;;;;;;5086784;28;20043;-80
2023/01/29 03:46:41;;;;;;;13.30;7.10;;;;;;;;;;5085744;28;20135;-81
2023/01/29 03:49:18;;;;;;;13.95;7.05;;;;;;;;;;5087007;28;20039;-79
2023/01/29 03:52:18;;;;;;;14.13;6.53;;;;;;;;;;5106204;28;20035;-80
2023/01/29 03:55:05;;;;;;;12.95;6.47;;;;;;;;;;5086337;28;20024;-79
2023/01/29 03:57:59;;;;;;;14.95;6.82;;;;;;;;;;5087148;28;20196;-80
2023/01/29 04:00:43;;;;;;;14.20;6.47;;;;;;;;;;5086959;28;20038;-80
2023/01/29 04:03:32;;;;;;;13.00;6.82;;;;;;;;;;5087392;28;20119;-80
2023/01/29 04:06:08;;;;;;;14.18;6.78;;;;;;;;;;5086493;28;20492;-79
2023/01/29 04:08:45;;;;;;;14.88;7.13;;;;;;;;;;5086965;28;20032;-79
2023/01/29 04:11:14;;;;;;;13.40;6.80;;;;;;;;;;5070901;28;20507;-80
2023/01/29 04:13:41;;;;;;;13.13;6.72;;;;;;;;;;5086677;28;20028;-80
2023/01/29 04:16:13;;;;;;;14.05;6.70;;;;;;;;;;5086810;28;20020;-80
2023/01/29 04:18:53;;;;;;;13.73;7.68;;;;;;;;;;5085160;28;20032;-78
2023/01/29 04:21:25;;;;;;;13.85;7.10;;;;;;;;;;5087277;28;20028;-80
2023/01/29 04:23:50;;;;;;;13.98;7.40;;;;;;;;;;5087192;28;20062;-79
2023/01/29 04:26:49;;;;;;;15.45;7.32;;;;;;;;;;5086628;28;20028;-80
2023/01/29 04:29:37;;;;;;;14.38;7.20;;;;;;;;;;5085339;28;20086;-79
2023/01/29 04:32:12;;;;;;;15.13;7.18;;;;;;;;;;5081835;28;20060;-80
2023/01/29 04:34:48;;;;;;;13.57;6.88;;;;;;;;;;5085700;28;20082;-80
2023/01/29 04:37:37;;;;;;;15.52;7.25;;;;;;;;;;5085771;28;20036;-80
2023/01/29 04:40:19;;;;;;;16.02;8.00;;;;;;;;;;5095051;28;20072;-79
2023/01/29 04:42:44;;;;;;;15.23;7.35;;;;;;;;;;5108445;28;20024;-79
2023/01/29 04:45:30;;;;;;;15.23;7.45;;;;;;;;;;5107506;28;20130;-80
2023/01/29 04:48:16;;;;;;;14.82;7.50;;;;;;;;;;5108259;28;20032;-80
2023/01/29 04:51:08;;;;;;;16.35;7.50;;;;;;;;;;5108983;28;20457;-80
2023/01/29 04:53:44;;;;;;;13.57;7.15;;;;;;;;;;5098042;28;20054;-80
2023/01/29 04:56:17;;;;;;;17.15;7.68;;;;;;;;;;5088620;28;20055;-79
2023/01/29 04:58:48;;;;;;;14.05;7.57;;;;;;;;;;5089698;28;20044;-80
2023/01/29 05:01:17;;;;;;;17.63;7.97;;;;;;;;;;5089699;28;20027;-79
2023/01/29 05:03:48;;;;;;;15.40;7.50;;;;;;;;;;5108100;28;20036;-79
2023/01/29 05:06:15;;;;;;;14.77;6.60;;;;;;;;;;5073324;28;20043;-80
2023/01/29 05:08:41;;;;;;;11.55;6.32;;;;;;;;;;5109032;28;20024;-79
2023/01/29 05:11:07;;;;;;;12.73;6.07;;;;;;;;;;5106409;28;20093;-80
2023/01/29 05:13:37;;;;;;;16.20;7.13;;;;;;;;;;5106072;28;20105;-80
2023/01/29 05:16:17;;;;;;;12.95;6.57;;;;;;;;;;5105690;28;20036;-79
2023/01/29 05:18:43;;;;;;;13.80;6.70;;;;;;;;;;5104174;28;20381;-81
2023/01/29 05:21:09;;;;;;;13.57;6.93;;;;;;;;;;5079230;28;20027;-82
2023/01/29 05:23:34;;;;;;;12.00;6.55;;;;;;;;;;5078703;28;20032;-81
2023/01/29 05:26:00;;;;;;;12.70;6.88;;;;;;;;;;5097837;28;20044;-81
2023/01/29 05:28:25;;;;;;;14.10;6.80;;;;;;;;;;5097161;28;20040;-82
2023/01/29 05:30:53;;;;;;;13.52;6.90;;;;;;;;;;5097272;28;20114;-81
2023/01/29 05:33:30;;;;;;;14.73;7.00;;;;;;;;;;5097153;28;20036;-82
2023/01/29 05:35:58;;;;;;;16.58;7.07;;;;;;;;;;5079290;28;20545;-82
2023/01/29 05:38:23;;;;;;;12.77;6.50;;;;;;;;;;5078888;28;20031;-82
2023/01/29 05:40:49;;;;;;;13.77;6.15;;;;;;;;;;5078591;28;20530;-81
2023/01/29 05:43:24;;;;;;;13.65;6.28;;;;;;;;;;5096158;28;20028;-81
2023/01/29 05:45:56;;;;;;;14.93;6.70;;;;;;;;;;5096230;28;20517;-82
2023/01/29 05:48:23;;;;;;;15.00;6.85;;;;;;;;;;5096795;28;20043;-82
2023/01/29 05:50:49;;;;;;;12.55;6.47;;;;;;;;;;5096173;28;20028;-82
2023/01/29 05:53:14;;;;;;;14.45;6.63;;;;;;;;;;5097078;28;20107;-82
2023/01/29 05:55:44;;;;;;;14.10;7.22;;;;;;;;;;5062035;28;20032;-82
2023/01/29 05:58:10;;;;;;;13.18;6.75;;;;;;;;;;5061676;28;20028;-82
2023/01/29 06:00:35;;;;;;;12.90;6.40;;;;;;;;;;5079033;28;20032;-82
2023/01/29 06:03:01;;;;;;;11.88;6.15;;;;;;;;;;5079032;28;20024;-82
2023/01/29 06:05:27;;;;;;;12.27;6.40;;;;;;;;;;5077989;28;20042;-82
2023/01/29 06:07:53;;;;;;;12.40;6.10;;;;;;;;;;5096457;28;20028;-81
2023/01/29 06:10:18;;;;;;;12.35;6.40;;;;;;;;;;5096562;28;20070;-81
2023/01/29 06:12:44;;;;;;;13.13;6.38;;;;;;;;;;5078336;28;20037;-81
2023/01/29 06:15:11;;;;;;;12.88;5.88;;;;;;;;;;5096025;28;20054;-81
2023/01/29 06:17:36;;;;;;;13.65;6.63;;;;;;;;;;5077998;28;20055;-82
2023/01/29 06:20:02;;;;;;;11.95;6.10;;;;;;;;;;5078290;28;20429;-81
2023/01/29 06:22:28;;;;;;;11.32;6.30;;;;;;;;;;5095625;28;20047;-82
2023/01/29 06:24:53;;;;;;;12.68;5.95;;;;;;;;;;5077992;28;20032;-82
2023/01/29 06:27:19;;;;;;;10.93;5.50;;;;;;;;;;5096238;28;20027;-82
2023/01/29 06:29:44;;;;;;;13.70;6.72;;;;;;;;;;5078500;28;20024;-82
2023/01/29 06:32:10;;;;;;;11.68;6.10;;;;;;;;;;5095850;28;20123;-82
2023/01/29 06:34:35;;;;;;;12.27;6.55;;;;;;;;;;5078130;28;20060;-81
2023/01/29 06:37:01;;;;;;;12.27;6.22;;;;;;;;;;5095534;28;20424;-82
2023/01/29 06:39:26;;;;;;;13.57;6.50;;;;;;;;;;5095159;28;20058;-82
2023/01/29 06:41:52;;;;;;;12.90;6.30;;;;;;;;;;5096475;28;20032;-82
2023/01/29 06:44:17;;;;;;;13.93;6.30;;;;;;;;;;5095737;28;20404;-82
2023/01/29 06:46:43;;;;;;;14.35;6.18;;;;;;;;;;5096014;28;20077;-82
2023/01/29 06:49:08;;;;;;;12.02;6.13;;;;;;;;;;5096060;28;20032;-82
2023/01/29 06:51:34;;;;;;;14.50;7.20;;;;;;;;;;5060621;28;20026;-82
2023/01/29 06:54:00;;;;;;;13.93;6.75;;;;;;;;;;5077429;28;20373;-81
2023/01/29 06:56:25;;;;;;;15.93;6.57;;;;;;;;;;5095078;28;20406;-82
2023/01/29 06:58:51;;;;;;;13.30;6.40;;;;;;;;;;5095756;28;20532;-81
2023/01/29 07:01:16;;;;;;;12.55;6.40;;;;;;;;;;5095557;28;20040;-81
2023/01/29 07:03:42;;;;;;;12.32;6.40;;;;;;;;;;5095735;28;20055;-82
2023/01/29 07:06:08;;;;;;;13.00;6.32;;;;;;;;;;5095302;28;20510;-80
2023/01/29 07:08:38;;;;;;;12.80;6.38;;;;;;;;;;5095231;28;20043;-81
2023/01/29 07:11:05;;;;;;;14.88;6.22;;;;;;;;;;5094568;28;20044;-80
2023/01/29 07:13:31;;;;;;;14.32;6.80;;;;;;;;;;5094988;28;20032;-80
2023/01/29 07:15:58;;;;;;;12.77;6.07;;;;;;;;;;5075451;28;20040;-81
2023/01/29 07:18:23;;;;;;;11.43;5.95;;;;;;;;;;5076035;28;20024;-81
2023/01/29 07:20:49;;;;;;;13.50;6.50;;;;;;;;;;5076005;28;20081;-81
2023/01/29 07:23:14;;;;;;;12.10;6.47;;;;;;;;;;5079109;28;20040;-78
2023/01/29 07:25:40;;;;;;;11.52;5.95;;;;;;;;;;5114112;28;20027;-79
2023/01/29 07:28:06;;;;;;;11.23;5.78;;;;;;;;;;5114477;28;20495;-80
2023/01/29 07:30:32;;;;;;;11.82;6.20;;;;;;;;;;5114176;28;20031;-78
2023/01/29 07:33:05;;;;;;;14.48;6.97;;;;;;;;;;5113401;28;20030;-79
2023/01/29 07:35:35;;;;;;;11.95;6.43;;;;;;;;;;5113226;28;20031;-79
2023/01/29 07:38:01;;;;;;;15.77;8.15;;;;;;;;;;5096381;28;20038;-79
2023/01/29 07:40:26;;;;;;;15.77;8.13;;;;;;;;;;5113288;28;20032;-79
2023/01/29 07:42:57;;;;;;;14.05;7.13;;;;;;;;;;5089945;28;20476;-80
2023/01/29 07:45:23;;;;;;;13.02;7.07;;;;;;;;;;5093970;28;20378;-80
2023/01/29 07:47:52;;;;;;;14.80;7.25;;;;;;;;;;5077035;28;20039;-81
2023/01/29 07:50:17;;;;;;;19.65;8.98;;;;;;;;;;5076629;28;20039;-79
2023/01/29 07:52:43;;;;;;;18.30;8.68;;;;;;;;;;5095587;28;20028;-81
2023/01/29 07:55:08;;;;;;;18.60;9.48;;;;;;;;;;5094656;28;20113;-80
2023/01/29 07:57:34;;;;;;;14.27;6.93;;;;;;;;;;5075048;28;20126;-80
2023/01/29 07:59:59;;;;;;;14.52;7.65;;;;;;;;;;5093422;28;20031;-81
2023/01/29 08:02:25;;;;;;;15.55;7.88;;;;;;;;;;5093871;28;20032;-80
2023/01/29 08:04:50;;;;;;;13.55;7.38;;;;;;;;;;5093394;28;20036;-80
2023/01/29 08:07:16;;;;;;;14.73;7.22;;;;;;;;;;5094602;28;20032;-82
2023/01/29 08:09:41;;;;;;;15.40;7.72;;;;;;;;;;5083794;28;20028;-83
2023/01/29 08:12:07;;;;;;;16.20;7.55;;;;;;;;;;5103016;28;20054;-83
2023/01/29 08:14:32;;;;;;;14.13;7.18;;;;;;;;;;5103297;28;20399;-82
2023/01/29 08:16:58;;;;;;;17.92;7.72;;;;;;;;;;5120355;28;20032;-83
2023/01/29 08:19:23;;;;;;;16.23;7.68;;;;;;;;;;5122698;28;20032;-83
2023/01/29 08:21:49;;;;;;;13.73;7.32;;;;;;;;;;5123923;28;20043;-83
2023/01/29 08:24:14;;;;;;;16.58;7.35;;;;;;;;;;5099665;28;20028;-83
2023/01/29 08:26:39;;;;;;;19.05;7.20;;;;;;;;;;5117608;28;20061;-82
2023/01/29 08:29:05;;;;;;;14.98;8.15;;;;;;;;;;5116120;28;20067;-81
2023/01/29 08:31:30;;;;;;;15.82;7.78;;;;;;;;;;5116381;28;20043;-81
2023/01/29 08:33:57;;;;;;;16.00;7.88;;;;;;;;;;5097996;28;20062;-81
2023/01/29 08:36:23;;;;;;;15.35;7.93;;;;;;;;;;5115874;28;20127;-84
2023/01/29 08:38:48;;;;;;;15.88;7.65;;;;;;;;;;5116597;28;20149;-83
2023/01/29 08:41:14;;;;;;;18.65;7.60;;;;;;;;;;5119340;28;20115;-83
2023/01/29 08:43:39;;;;;;;14.10;7.03;;;;;;;;;;5116813;28;20069;-82
2023/01/29 08:46:06;;;;;;;12.50;6.93;;;;;;;;;;5115136;28;20059;-81
2023/01/29 08:48:32;;;;;;;14.70;7.63;;;;;;;;;;5114824;28;20110;-82
2023/01/29 08:50:59;;;;;;;15.77;6.97;;;;;;;;;;5096881;28;20127;-82
2023/01/29 08:53:24;;;;;;;14.20;7.32;;;;;;;;;;5115029;28;20042;-82
2023/01/29 08:55:50;;;;;;;13.25;6.53;;;;;;;;;;5114421;28;20024;-81
2023/01/29 08:58:16;;;;;;;13.05;6.35;;;;;;;;;;5096704;28;20035;-82
2023/01/29 09:00:41;;;;;;;15.32;7.38;;;;;;;;;;5096547;28;20395;-82
2023/01/29 09:03:07;;;;;;;12.20;6.55;;;;;;;;;;5114452;28;20040;-82
2023/01/29 09:05:37;;;;;;;12.65;6.72;;;;;;;;;;5114313;28;20027;-82
2023/01/29 09:08:04;;;;;;;13.15;6.47;;;;;;;;;;5096341;28;20032;-82
2023/01/29 09:10:29;;;;;;;14.27;8.38;;;;;;;;;;5114559;28;20039;-82
2023/01/29 09:12:55;;;;;;;16.25;8.70;;;;;;;;;;5114332;28;20040;-83
2023/01/29 09:15:21;;;;;;;16.88;6.93;;;;;;;;;;5114262;28;20035;-82
2023/01/29 09:17:48;;;;;;;11.45;6.70;;;;;;;;;;5114418;28;20071;-83
2023/01/29 09:20:14;;;;;;;11.10;6.68;;;;;;;;;;5114460;28;20063;-82
2023/01/29 09:22:41;;;;;;;13.45;7.20;;;;;;;;;;5114317;28;20126;-82
2023/01/29 09:25:07;;;;;;;11.30;6.40;;;;;;;;;;5114543;28;20027;-82
2023/01/29 09:27:32;;;;;;;11.63;6.20;;;;;;;;;;5082520;28;20130;-82
2023/01/29 09:29:58;;;;;;;12.00;6.07;;;;;;;;;;5099662;28;20103;-83
2023/01/29 09:32:24;;;;;;;11.35;6.15;;;;;;;;;;5117584;28;20544;-83
2023/01/29 09:34:49;;;;;;;13.25;6.70;;;;;;;;;;5117662;28;20076;-83
2023/01/29 09:37:16;;;;;;;10.50;6.10;;;;;;;;;;5117723;28;20564;-83
2023/01/29 09:39:42;;;;;;;10.98;6.63;;;;;;;;;;5116788;28;20042;-82
2023/01/29 09:42:23;;;;;;;10.52;6.50;;;;;;;;;;5117674;28;20109;-82
2023/01/29 09:45:07;;;;;;;13.07;6.38;;;;;;;;;;5117124;28;20110;-82
2023/01/29 09:47:35;;;;;;;12.85;6.63;;;;;;;;;;5098246;28;20122;-82
2023/01/29 09:50:06;;;;;;;9.23;5.28;;;;;;;;;;5117024;28;20035;-82
2023/01/29 09:52:40;;;;;;;11.77;6.80;;;;;;;;;;5098811;28;20059;-83
2023/01/29 09:55:11;;;;;;;;;;;;;;;;;;5082389;28;20040;-80
2023/01/29 09:57:37;;;;;;;15.20;7.05;;;;;;;;;;5098300;28;19966;-83
2023/01/29 10:00:03;;;;;;;11.82;6.05;;;;;;;;;;5117829;28;20023;-81
2023/01/29 10:02:34;;;;;;;26.55;10.80;;;;;;;;;;5117255;28;20592;-83
2023/01/29 10:05:26;;;;;;;30.38;10.75;;;;;;;;;;5115887;28;20051;-81
2023/01/29 10:08:17;;;;;;;20.20;9.20;;;;;;;;;;5088603;28;20035;-81
2023/01/29 10:10:49;;;;;;;19.77;7.70;;;;;;;;;;5097868;28;20040;-82
2023/01/29 10:13:58;;;;;;;14.02;6.95;;;;;;;;;;5097484;28;20096;-82
2023/01/29 10:16:46;;;;;;;13.98;7.32;;;;;;;;;;5078169;28;20078;-82
2023/01/29 10:19:33;;;;;;;11.57;6.35;;;;;;;;;;5096958;28;20061;-83
2023/01/29 10:22:23;;;;;;;10.73;5.78;;;;;;;;;;5097911;28;20040;-83
2023/01/29 10:25:03;;;;;;;9.98;6.00;;;;;;;;;;5079684;28;20130;-82
2023/01/29 10:27:37;;;;;;;11.75;6.18;;;;;;;;;;5079354;28;20039;-82
2023/01/29 10:30:08;;;;;;;18.25;8.55;;;;;;;;;;5097675;28;20037;-82
2023/01/29 10:32:36;;;;;;;19.00;8.93;;;;;;;;;;5097780;28;20032;-82
2023/01/29 10:35:23;;;;;;;11.90;5.95;;;;;;;;;;5079713;28;20036;-82
2023/01/29 10:37:52;;;;;;;11.63;5.60;;;;;;;;;;5061952;28;20032;-82
2023/01/29 10:40:36;;;;;;;9.88;5.60;;;;;;;;;;5097066;28;20479;-82
2023/01/29 10:43:10;;;;;;;15.25;8.40;;;;;;;;;;5079716;28;20032;-83
2023/01/29 10:45:51;;;;;;;12.18;6.18;;;;;;;;;;5097072;28;20488;-82
2023/01/29 10:48:20;;;;;;;11.73;5.80;;;;;;;;;;5097609;28;20032;-82
2023/01/29 10:50:53;;;;;;;11.77;6.50;;;;;;;;;;5079228;28;20028;-82
2023/01/29 10:53:22;;;;;;;23.17;10.52;;;;;;;;;;5097507;28;20035;-82
2023/01/29 10:55:53;;;;;;;142.75;62.42;;;;;;;;;;5079008;28;20131;-82
2023/01/29 10:58:37;;;;;;;21.60;10.93;;;;;;;;;;5097089;28;20075;-82
2023/01/29 11:01:03;;;;;;;13.57;7.10;;;;;;;;;;5078980;28;20039;-81
2023/01/29 11:03:31;;;;;;;32.80;17.70;;;;;;;;;;5079201;28;20077;-82
2023/01/29 11:06:00;;;;;;;17.85;8.90;;;;;;;;;;5077712;28;20050;-82
2023/01/29 11:08:36;;;;;;;27.55;12.40;;;;;;;;;;5078192;28;20039;-82
2023/01/29 11:11:13;;;;;;;19.10;9.77;;;;;;;;;;5096299;28;20040;-82
2023/01/29 11:14:18;;;;;;;13.27;7.05;;;;;;;;;;5078751;28;20040;-82
2023/01/29 11:16:46;;;;;;;136.77;47.83;;;;;;;;;;5075781;28;20046;-83
2023/01/29 11:19:12;;;;;;;16.05;8.40;;;;;;;;;;5096904;28;20044;-82
2023/01/29 11:21:58;;;;;;;44.85;26.10;;;;;;;;;;5095155;28;20047;-82
2023/01/29 11:24:24;;;;;;;16.98;9.07;;;;;;;;;;5094815;28;20591;-82
2023/01/29 11:26:53;;;;;;;12.38;7.20;;;;;;;;;;5076576;28;20028;-82
2023/01/29 11:29:34;;;;;;;16.52;10.07;;;;;;;;;;5095496;28;20088;-84
2023/01/29 11:32:04;;;;;;;12.68;6.22;;;;;;;;;;5100837;28;20035;-83
2023/01/29 11:34:33;;;;;;;12.32;6.63;;;;;;;;;;5101236;28;20035;-84
2023/01/29 11:37:00;;;;;;;15.50;7.07;;;;;;;;;;5102574;28;20039;-83
2023/01/29 11:39:28;;;;;;;13.00;6.38;;;;;;;;;;5099634;28;20027;-84
2023/01/29 11:42:02;;;;;;;11.65;6.10;;;;;;;;;;5101939;28;20036;-84
2023/01/29 11:44:29;;;;;;;11.02;6.18;;;;;;;;;;5097869;28;20032;-82
2023/01/29 11:47:09;;;;;;;13.30;6.40;;;;;;;;;;5095044;28;20028;-84
2023/01/29 11:49:35;;;;;;;11.07;5.90;;;;;;;;;;5094383;28;20039;-82
2023/01/29 11:52:06;;;;;;;11.25;6.32;;;;;;;;;;5077322;28;20040;-83
2023/01/29 11:54:37;;;;;;;12.85;6.60;;;;;;;;;;5097519;28;20083;-83
2023/01/29 11:57:03;;;;;;;11.05;6.07;;;;;;;;;;5089017;28;20032;-83
2023/01/29 11:59:47;;;;;;;11.43;5.97;;;;;;;;;;5103355;28;20056;-83
2023/01/29 12:02:44;;;;;;;10.98;5.85;;;;;;;;;;5088481;28;20040;-83
2023/01/29 12:05:21;;;;;;;10.45;5.70;;;;;;;;;;5106984;28;20056;-83
2023/01/29 12:07:59;;;;;;;11.68;6.35;;;;;;;;;;5067885;28;20032;-83
2023/01/29 12:10:33;;;;;;;15.18;5.75;;;;;;;;;;5095466;28;20090;-83
2023/01/29 12:13:19;;;;;;;11.27;6.18;;;;;;;;;;5095147;28;20122;-82
2023/01/29 12:15:46;;;;;;;10.55;6.07;;;;;;;;;;5094489;28;20392;-82
2023/01/29 12:18:34;;;;;;;18.88;7.75;;;;;;;;;;5060145;28;20047;-82
2023/01/29 12:21:17;;;;;;;13.95;7.10;;;;;;;;;;5077100;28;20051;-83
2023/01/29 12:23:42;;;;;;;13.02;7.45;;;;;;;;;;5095293;28;20040;-82
2023/01/29 12:26:11;;;;;;;16.38;6.35;;;;;;;;;;5097695;28;20080;-84
2023/01/29 12:29:06;;;;;;;17.85;7.68;;;;;;;;;;5078447;28;20027;-84
2023/01/29 12:31:49;;;;;;;21.90;10.68;;;;;;;;;;5077056;28;20144;-83
2023/01/29 12:34:26;;;;;;;13.15;7.10;;;;;;;;;;5075736;28;20040;-83
2023/01/29 12:37:18;;;;;;;11.48;6.05;;;;;;;;;;5094307;28;20036;-82
2023/01/29 12:39:44;;;;;;;14.75;6.78;;;;;;;;;;5075704;28;20111;-83
2023/01/29 12:42:16;;;;;;;17.83;8.27;;;;;;;;;;5093992;28;20046;-83
2023/01/29 12:44:47;;;;;;;10.75;6.40;;;;;;;;;;5094237;28;20028;-83
2023/01/29 12:47:22;;;;;;;12.27;6.10;;;;;;;;;;5076039;28;20028;-84
2023/01/29 12:49:53;;;;;;;45.95;21.83;;;;;;;;;;5076223;28;20043;-83
2023/01/29 12:52:34;;;;;;;14.85;7.65;;;;;;;;;;5094461;28;20077;-83
2023/01/29 12:55:07;;;;;;;12.35;7.30;;;;;;;;;;5093935;28;20032;-84
2023/01/29 12:57:53;;;;;;;12.57;5.80;;;;;;;;;;5076233;28;20036;-85
2023/01/29 13:00:32;;;;;;;13.18;6.78;;;;;;;;;;5097290;28;20055;-84
2023/01/29 13:03:22;;;;;;;10.18;5.90;;;;;;;;;;5081254;28;20032;-83
2023/01/29 13:05:50;;;;;;;22.63;6.82;;;;;;;;;;5099706;28;20124;-84
2023/01/29 13:08:23;;;;;;;11.55;6.50;;;;;;;;;;5081376;28;20051;-84
2023/01/29 13:10:50;;;;;;;;;;;;;;;;;;5088447;28;20031;-81
2023/01/29 13:13:18;;;;;;;16.60;9.82;;;;;;;;;;5105227;28;19908;-86
2023/01/29 13:15:44;;;;;;;19.85;10.10;;;;;;;;;;5119784;28;20054;-85
2023/01/29 13:18:13;;;;;;;26.13;13.75;;;;;;;;;;5100467;28;20027;-86
2023/01/29 13:20:39;;;;;;;17.42;10.55;;;;;;;;;;5119464;28;20383;-84
2023/01/29 13:23:16;;;;;;;17.00;8.43;;;;;;;;;;5118891;28;20073;-84
2023/01/29 13:25:42;;;;;;;14.40;7.10;;;;;;;;;;5119099;28;20035;-84
2023/01/29 13:28:19;;;;;;;13.20;6.68;;;;;;;;;;5119916;28;20076;-84
2023/01/29 13:30:46;;;;;;;16.48;7.47;;;;;;;;;;5101289;28;20110;-84
2023/01/29 13:33:22;;;;;;;15.23;8.23;;;;;;;;;;5084910;28;20028;-84
2023/01/29 13:35:56;;;;;;;11.10;6.28;;;;;;;;;;5100864;28;20043;-84
2023/01/29 13:38:26;;;;;;;15.55;8.30;;;;;;;;;;5119425;28;20027;-84
2023/01/29 13:40:58;;;;;;;13.52;7.78;;;;;;;;;;5119453;28;20031;-83
2023/01/29 13:43:24;;;;;;;14.10;7.70;;;;;;;;;;5118851;28;20042;-82
2023/01/29 13:45:52;;;;;;;21.33;11.38;;;;;;;;;;5119148;28;20107;-83
2023/01/29 13:48:24;;;;;;;17.10;9.60;;;;;;;;;;5119424;28;20028;-83
2023/01/29 13:50:51;;;;;;;15.00;8.73;;;;;;;;;;5118834;28;20486;-83
2023/01/29 13:53:35;;;;;;;18.42;8.73;;;;;;;;;;5118887;28;20031;-83
2023/01/29 13:56:31;;;;;;;21.88;10.48;;;;;;;;;;5100281;28;20387;-83
2023/01/29 13:58:57;;;;;;;19.00;9.25;;;;;;;;;;5118454;28;20035;-83
2023/01/29 14:01:48;;;;;;;15.07;8.77;;;;;;;;;;5118635;28;20147;-83
2023/01/29 14:04:24;;;;;;;16.85;8.90;;;;;;;;;;5118607;28;20089;-83
2023/01/29 14:06:55;;;;;;;18.05;9.82;;;;;;;;;;5083370;28;20031;-83
2023/01/29 14:09:33;;;;;;;23.00;10.77;;;;;;;;;;5118973;28;20036;-83
2023/01/29 14:11:59;;;;;;;18.15;8.93;;;;;;;;;;5117567;28;20036;-83
2023/01/29 14:14:46;;;;;;;13.85;8.55;;;;;;;;;;5118146;28;20028;-83
2023/01/29 14:17:17;;;;;;;16.00;8.75;;;;;;;;;;5118875;28;20067;-83
2023/01/29 14:20:15;;;;;;;14.48;8.07;;;;;;;;;;5100184;28;20376;-82
2023/01/29 14:22:42;;;;;;;16.13;9.25;;;;;;;;;;5118608;28;20031;-82
2023/01/29 14:25:17;;;;;;;17.70;9.57;;;;;;;;;;5098718;28;20035;-84
2023/01/29 14:27:46;;;;;;;14.65;7.18;;;;;;;;;;5118701;28;20031;-84
2023/01/29 14:30:17;;;;;;;27.15;14.50;;;;;;;;;;5098505;28;20064;-84
2023/01/29 14:32:47;;;;;;;40.25;18.15;;;;;;;;;;5116549;28;20035;-84
2023/01/29 14:35:22;;;;;;;36.80;17.60;;;;;;;;;;5116155;28;20043;-83
2023/01/29 14:38:01;;;;;;;24.90;12.35;;;;;;;;;;5097784;28;20031;-83
2023/01/29 14:40:28;;;;;;;20.38;11.57;;;;;;;;;;5118745;28;20055;-84
2023/01/29 14:43:24;;;;;;;22.27;11.48;;;;;;;;;;5103672;28;20081;-85
2023/01/29 14:45:50;;;;;;;20.77;11.15;;;;;;;;;;5122151;28;20015;-83
2023/01/29 14:48:34;;;;;;;20.08;10.50;;;;;;;;;;5121115;28;20364;-84
2023/01/29 14:51:07;;;;;;;23.17;11.32;;;;;;;;;;5115801;28;20035;-82
2023/01/29 14:53:52;;;;;;;20.25;10.57;;;;;;;;;;5115671;28;20027;-84
2023/01/29 14:56:23;;;;;;;22.58;11.38;;;;;;;;;;5097382;28;20035;-84
2023/01/29 14:58:52;;;;;;;24.30;12.75;;;;;;;;;;5115199;28;20054;-83
2023/01/29 15:01:26;;;;;;;21.25;11.50;;;;;;;;;;5098352;28;20609;-84
2023/01/29 15:03:59;;;;;;;21.92;11.15;;;;;;;;;;5097638;28;20128;-84
2023/01/29 15:06:46;;;;;;;21.98;11.95;;;;;;;;;;5098072;28;20123;-82
2023/01/29 15:09:23;;;;;;;21.77;11.52;;;;;;;;;;5115778;28;20134;-84
2023/01/29 15:11:57;;;;;;;35.83;17.38;;;;;;;;;;5115742;28;20110;-84
2023/01/29 15:14:30;;;;;;;35.92;19.50;;;;;;;;;;5097146;28;20505;-83
2023/01/29 15:17:08;;;;;;;;;;;;;;;;;;5116116;28;20427;-84
2023/01/29 15:19:43;;;;;;;25.75;13.40;;;;;;;;;;5115286;28;19914;-84
2023/01/29 15:22:24;;;;;;;20.83;9.80;;;;;;;;;;5098136;28;20028;-84